createdAt,value
2023-01-15T00:01:32.081Z,99233.17
2023-01-15T00:04:04.308Z,99226.32
2023-01-15T00:06:38.109Z,99224.27
2023-01-15T00:09:08.817Z,99222.04
2023-01-15T00:11:38.091Z,99223.42
2023-01-15T00:14:07.637Z,99218.30
2023-01-15T00:16:37.462Z,99213.78
2023-01-15T00:19:11.680Z,99215.71
2023-01-15T00:21:40.942Z,99215.81
2023-01-15T00:24:28.927Z,99214.95
2023-01-15T00:27:16.351Z,99217.86
2023-01-15T00:29:45.445Z,99215.14
2023-01-15T00:32:14.518Z,99215.30
2023-01-15T00:34:43.176Z,99212.11
2023-01-15T00:37:12.186Z,99215.20
2023-01-15T00:39:40.830Z,99212.65
2023-01-15T00:42:11.668Z,99206.67
2023-01-15T00:44:40.823Z,99213.79
2023-01-15T00:47:15.332Z,99220.80
2023-01-15T00:49:45.860Z,99216.00
2023-01-15T00:52:15.554Z,99216.85
2023-01-15T00:54:45.601Z,99221.19
2023-01-15T00:57:14.879Z,99219.59
2023-01-15T00:59:44.205Z,99216.25
2023-01-15T01:02:13.155Z,99214.70
2023-01-15T01:04:42.345Z,99212.77
2023-01-15T01:07:11.143Z,99218.01
2023-01-15T01:09:40.482Z,99213.31
2023-01-15T01:12:09.232Z,99202.98
2023-01-15T01:14:39.112Z,99205.22
2023-01-15T01:17:07.771Z,99207.32
2023-01-15T01:19:37.204Z,99206.77
2023-01-15T01:22:05.882Z,99211.45
2023-01-15T01:24:34.656Z,99208.05
2023-01-15T01:27:03.844Z,99207.95
2023-01-15T01:29:32.789Z,99212.27
2023-01-15T01:32:02.112Z,99218.39
2023-01-15T01:34:31.347Z,99213.35
2023-01-15T01:37:00.399Z,99211.29
2023-01-15T01:39:29.333Z,99205.91
2023-01-15T01:41:58.395Z,99207.56
2023-01-15T01:44:34.010Z,99202.67
2023-01-15T01:47:07.664Z,99200.70
2023-01-15T01:49:39.797Z,99200.34
2023-01-15T01:52:16.819Z,99201.66
2023-01-15T01:54:48.228Z,99203.48
2023-01-15T01:57:19.352Z,99205.75
2023-01-15T01:59:48.977Z,99201.80
2023-01-15T02:02:22.237Z,99199.50
2023-01-15T02:04:51.940Z,99195.38
2023-01-15T02:07:20.817Z,99187.47
2023-01-15T02:09:49.843Z,99180.34
2023-01-15T02:12:51.010Z,99181.74
2023-01-15T02:15:29.437Z,99172.20
2023-01-15T02:17:58.079Z,99171.48
2023-01-15T02:20:37.121Z,99165.78
2023-01-15T02:23:32.105Z,99164.37
2023-01-15T02:26:26.764Z,99159.16
2023-01-15T02:28:58.900Z,99157.02
2023-01-15T02:31:34.037Z,99147.70
2023-01-15T02:34:27.891Z,99144.63
2023-01-15T02:37:20.536Z,99145.83
2023-01-15T02:39:51.917Z,99148.70
2023-01-15T02:42:23.824Z,99149.91
2023-01-15T02:44:55.986Z,99149.79
2023-01-15T02:47:28.457Z,99149.58
2023-01-15T02:50:03.019Z,99142.43
2023-01-15T02:52:52.441Z,99133.52
2023-01-15T02:55:27.306Z,99136.33
2023-01-15T02:58:00.013Z,99124.68
2023-01-15T03:00:34.881Z,99126.69
2023-01-15T03:03:06.444Z,99128.67
2023-01-15T03:06:06.600Z,99126.52
2023-01-15T03:08:36.483Z,99117.77
2023-01-15T03:11:14.806Z,99110.31
2023-01-15T03:13:43.576Z,99101.11
2023-01-15T03:16:36.129Z,99101.96
2023-01-15T03:19:29.726Z,99097.73
2023-01-15T03:22:15.689Z,99099.34
2023-01-15T03:25:14.305Z,99102.25
2023-01-15T03:27:42.975Z,99095.27
2023-01-15T03:30:16.028Z,99094.47
2023-01-15T03:32:44.802Z,99086.02
2023-01-15T03:35:44.411Z,99084.64
2023-01-15T03:38:14.991Z,99084.56
2023-01-15T03:41:20.226Z,99080.75
2023-01-15T03:44:02.724Z,99076.67
2023-01-15T03:46:54.725Z,99066.11
2023-01-15T03:50:01.759Z,99064.40
2023-01-15T03:53:03.314Z,99061.15
2023-01-15T03:55:32.331Z,99054.54
2023-01-15T03:58:12.642Z,99048.27
2023-01-15T04:00:56.235Z,99051.99
2023-01-15T04:03:27.027Z,99050.45
2023-01-15T04:05:58.101Z,99050.34
2023-01-15T04:08:31.647Z,99049.80
2023-01-15T04:11:03.216Z,99049.74
2023-01-15T04:13:32.537Z,99047.28
2023-01-15T04:16:02.058Z,99048.73
2023-01-15T04:18:30.929Z,99044.28
2023-01-15T04:21:00.024Z,99045.41
2023-01-15T04:23:29.078Z,99043.79
2023-01-15T04:25:58.009Z,99046.67
2023-01-15T04:28:27.119Z,99041.13
2023-01-15T04:30:58.526Z,99045.55
2023-01-15T04:33:27.622Z,99042.65
2023-01-15T04:36:01.034Z,99048.67
2023-01-15T04:38:30.447Z,99041.86
2023-01-15T04:41:21.963Z,99037.85
2023-01-15T04:44:09.441Z,99037.40
2023-01-15T04:46:40.853Z,99036.48
2023-01-15T04:49:14.082Z,99034.63
2023-01-15T04:51:43.578Z,99036.63
2023-01-15T04:54:15.224Z,99035.22
2023-01-15T04:56:46.771Z,99032.45
2023-01-15T04:59:18.368Z,99037.98
2023-01-15T05:01:58.311Z,99040.67
2023-01-15T05:04:32.717Z,99038.00
2023-01-15T05:07:03.642Z,99037.45
2023-01-15T05:09:33.151Z,99033.87
2023-01-15T05:12:02.555Z,99033.81
2023-01-15T05:14:31.697Z,99034.92
2023-01-15T05:17:00.660Z,99036.02
2023-01-15T05:19:29.634Z,99038.00
2023-01-15T05:21:58.484Z,99035.13
2023-01-15T05:24:27.754Z,99023.87
2023-01-15T05:26:58.810Z,99020.99
2023-01-15T05:29:28.283Z,99018.27
2023-01-15T05:31:57.256Z,99008.04
2023-01-15T05:34:26.221Z,99007.48
2023-01-15T05:36:55.472Z,98997.77
2023-01-15T05:39:24.517Z,98997.63
2023-01-15T05:41:54.441Z,98995.56
2023-01-15T05:44:26.851Z,98993.64
2023-01-15T05:46:58.791Z,98991.90
2023-01-15T05:49:30.212Z,98987.39
2023-01-15T05:52:01.138Z,98990.05
2023-01-15T05:54:33.476Z,98997.59
2023-01-15T05:57:04.519Z,98990.52
2023-01-15T05:59:34.175Z,98987.73
2023-01-15T06:02:03.210Z,98987.84
2023-01-15T06:04:32.739Z,98989.83
2023-01-15T06:07:02.319Z,98980.36
2023-01-15T06:09:31.229Z,98984.31
2023-01-15T06:11:59.992Z,98985.25
2023-01-15T06:14:28.862Z,98981.89
2023-01-15T06:16:58.232Z,98981.40
2023-01-15T06:19:27.706Z,98980.11
2023-01-15T06:21:56.865Z,98977.30
2023-01-15T06:24:25.708Z,98973.46
2023-01-15T06:26:54.689Z,98966.98
2023-01-15T06:29:23.457Z,98955.32
2023-01-15T06:31:52.496Z,98959.77
2023-01-15T06:34:21.054Z,98958.96
2023-01-15T06:36:49.912Z,98953.98
2023-01-15T06:39:18.826Z,98957.40
2023-01-15T06:42:06.146Z,98950.30
2023-01-15T06:44:53.680Z,98946.95
2023-01-15T06:47:23.663Z,98950.89
2023-01-15T06:49:56.544Z,98945.83
2023-01-15T06:52:28.014Z,98950.96
2023-01-15T06:54:57.200Z,98956.64
2023-01-15T06:57:27.099Z,98961.79
2023-01-15T06:59:56.219Z,98962.51
2023-01-15T07:02:25.523Z,98959.56
2023-01-15T07:04:54.668Z,98958.52
2023-01-15T07:07:24.102Z,98955.05
2023-01-15T07:09:53.469Z,98953.70
2023-01-15T07:12:23.589Z,98954.37
2023-01-15T07:14:53.518Z,98948.64
2023-01-15T07:17:23.188Z,98947.52
2023-01-15T07:19:52.132Z,98948.90
2023-01-15T07:22:21.295Z,98943.98
2023-01-15T07:24:50.392Z,98946.55
2023-01-15T07:27:19.695Z,98946.74
2023-01-15T07:29:50.276Z,98943.96
2023-01-15T07:32:20.377Z,98947.12
2023-01-15T07:34:49.062Z,98942.79
2023-01-15T07:37:17.937Z,98941.23
2023-01-15T07:39:46.859Z,98950.77
2023-01-15T07:42:34.683Z,98954.37
2023-01-15T07:45:22.314Z,98955.28
2023-01-15T07:48:10.287Z,98951.29
2023-01-15T07:50:39.480Z,98959.02
2023-01-15T07:53:08.728Z,98963.91
2023-01-15T07:55:37.806Z,98971.81
2023-01-15T07:58:06.905Z,98966.77
2023-01-15T08:00:37.322Z,98964.05
2023-01-15T08:03:07.079Z,98960.52
2023-01-15T08:05:35.981Z,98949.66
2023-01-15T08:08:05.812Z,98944.67
2023-01-15T08:10:54.725Z,98945.33
2023-01-15T08:13:42.093Z,98938.72
2023-01-15T08:16:11.902Z,98938.30
2023-01-15T08:18:41.205Z,98939.09
2023-01-15T08:21:15.936Z,98944.31
2023-01-15T08:23:46.767Z,98935.06
2023-01-15T08:26:15.722Z,98932.66
2023-01-15T08:28:44.516Z,98933.90
2023-01-15T08:31:13.409Z,98935.55
2023-01-15T08:33:42.646Z,98927.94
2023-01-15T08:36:11.632Z,98925.19
2023-01-15T08:38:40.276Z,98921.98
2023-01-15T08:41:09.661Z,98913.86
2023-01-15T08:43:38.500Z,98915.23
2023-01-15T08:46:08.049Z,98911.98
2023-01-15T08:48:37.258Z,98915.09
2023-01-15T08:51:10.956Z,98926.09
2023-01-15T08:53:40.444Z,98932.84
2023-01-15T08:56:14.305Z,98930.79
2023-01-15T08:58:43.940Z,98930.16
2023-01-15T09:01:16.569Z,98922.84
2023-01-15T09:03:47.786Z,98911.73
2023-01-15T09:06:16.790Z,98910.15
2023-01-15T09:08:46.396Z,98915.18
2023-01-15T09:11:15.489Z,98905.84
2023-01-15T09:13:47.297Z,98910.05
2023-01-15T09:16:17.775Z,98905.52
2023-01-15T09:18:47.785Z,98892.23
2023-01-15T09:21:16.632Z,98890.73
2023-01-15T09:23:46.014Z,98893.13
2023-01-15T09:26:39.026Z,98895.19
2023-01-15T09:29:09.485Z,98894.63
2023-01-15T09:31:39.715Z,98900.23
2023-01-15T09:34:09.031Z,98899.82
2023-01-15T09:36:41.329Z,98902.89
2023-01-15T09:39:11.234Z,98908.70
2023-01-15T09:42:25.380Z,98905.94
2023-01-15T09:45:10.096Z,98897.42
2023-01-15T09:47:47.941Z,98896.83
2023-01-15T09:50:40.179Z,98898.55
2023-01-15T09:53:36.340Z,98888.52
2023-01-15T09:56:06.559Z,98887.84
2023-01-15T09:58:41.242Z,98887.90
2023-01-15T10:01:20.176Z,98875.20
2023-01-15T10:04:02.850Z,98870.46
2023-01-15T10:07:20.113Z,98875.59
2023-01-15T10:10:07.194Z,98872.89
2023-01-15T10:12:41.996Z,98867.24
2023-01-15T10:15:14.907Z,98861.51
2023-01-15T10:17:51.431Z,98857.95
2023-01-15T10:20:45.406Z,98852.13
2023-01-15T10:23:41.109Z,98849.17
2023-01-15T10:26:18.850Z,98840.92
2023-01-15T10:29:18.706Z,98834.80
2023-01-15T10:31:52.970Z,98836.48
2023-01-15T10:34:30.588Z,98836.02
2023-01-15T10:37:04.752Z,98831.42
2023-01-15T10:39:33.728Z,98827.08
2023-01-15T10:42:31.120Z,98816.34
2023-01-15T10:45:15.746Z,98806.53
2023-01-15T10:47:50.052Z,98805.08
2023-01-15T10:50:27.798Z,98795.27
2023-01-15T10:53:00.465Z,98787.20
2023-01-15T10:55:59.219Z,98778.08
2023-01-15T10:58:38.406Z,98764.23
2023-01-15T11:01:17.129Z,98753.11
2023-01-15T11:03:47.487Z,98751.27
2023-01-15T11:06:22.207Z,98750.47
2023-01-15T11:09:09.087Z,98741.65
2023-01-15T11:12:01.504Z,98731.08
2023-01-15T11:14:58.872Z,98727.52
2023-01-15T11:17:57.127Z,98734.88
2023-01-15T11:20:28.471Z,98724.27
2023-01-15T11:23:10.806Z,98715.88
2023-01-15T11:25:50.779Z,98703.02
2023-01-15T11:28:40.771Z,98693.19
2023-01-15T11:31:12.021Z,98691.30
2023-01-15T11:33:44.638Z,98698.09
2023-01-15T11:36:23.268Z,98700.23
2023-01-15T11:38:53.415Z,98703.08
2023-01-15T11:41:23.147Z,98697.50
2023-01-15T11:44:17.036Z,98694.45
2023-01-15T11:47:14.631Z,98691.27
2023-01-15T11:50:13.473Z,98686.87
2023-01-15T11:52:57.726Z,98689.71
2023-01-15T11:55:29.127Z,98688.65
2023-01-15T11:57:58.998Z,98685.64
2023-01-15T12:00:33.306Z,98676.15
2023-01-15T12:03:15.429Z,98664.38
2023-01-15T12:05:55.008Z,98645.85
2023-01-15T12:09:14.110Z,98635.84
2023-01-15T12:12:01.886Z,98631.59
2023-01-15T12:14:46.245Z,98630.63
2023-01-15T12:17:28.790Z,98618.99
2023-01-15T12:20:07.451Z,98623.67
2023-01-15T12:22:52.546Z,98620.23
2023-01-15T12:25:44.626Z,98619.90
2023-01-15T12:28:19.808Z,98619.81
2023-01-15T12:31:20.339Z,98609.57
2023-01-15T12:34:02.165Z,98607.42
2023-01-15T12:39:42.320Z,98602.66
2023-01-15T12:42:36.957Z,98590.95
2023-01-15T12:45:29.485Z,98586.03
2023-01-15T12:48:13.014Z,98589.88
2023-01-15T12:50:49.420Z,98570.64
2023-01-15T12:53:28.366Z,98566.71
2023-01-15T12:56:18.725Z,98569.84
2023-01-15T12:58:52.820Z,98557.61
2023-01-15T13:01:29.825Z,98544.66
2023-01-15T13:04:18.047Z,98533.24
2023-01-15T13:06:56.909Z,98532.16
2023-01-15T13:09:43.816Z,98534.60
2023-01-15T13:12:17.387Z,98527.46
2023-01-15T13:14:47.379Z,98527.23
2023-01-15T13:17:31.624Z,98535.98
2023-01-15T13:20:24.119Z,98526.91
2023-01-15T13:23:05.305Z,98530.65
2023-01-15T13:25:45.534Z,98530.56
2023-01-15T13:28:42.346Z,98525.94
2023-01-15T13:31:24.318Z,98521.28
2023-01-15T13:33:57.876Z,98522.90
2023-01-15T13:36:39.228Z,98519.98
2023-01-15T13:39:19.201Z,98521.95
2023-01-15T13:42:11.984Z,98518.55
2023-01-15T13:44:54.058Z,98512.73
2023-01-15T13:47:29.407Z,98506.14
2023-01-15T13:50:17.396Z,98500.67
2023-01-15T13:52:47.636Z,98499.38
2023-01-15T13:55:18.477Z,98495.88
2023-01-15T13:57:50.142Z,98493.69
2023-01-15T14:00:38.695Z,98488.44
2023-01-15T14:03:29.909Z,98494.36
2023-01-15T14:06:10.244Z,98501.98
2023-01-15T14:08:45.331Z,98502.73
2023-01-15T14:11:52.760Z,98503.22
2023-01-15T14:14:40.064Z,98496.91
2023-01-15T14:17:21.136Z,98495.11
2023-01-15T14:20:14.932Z,98492.79
2023-01-15T14:23:10.679Z,98485.55
2023-01-15T14:26:21.586Z,98482.75
2023-01-15T14:29:03.092Z,98475.67
2023-01-15T14:31:58.854Z,98480.77
2023-01-15T14:34:31.294Z,98475.05
2023-01-15T14:37:17.560Z,98469.90
2023-01-15T14:39:58.984Z,98473.27
2023-01-15T14:42:57.193Z,98482.08
2023-01-15T14:45:37.245Z,98477.74
2023-01-15T14:48:19.438Z,98480.77
2023-01-15T14:50:50.547Z,98472.63
2023-01-15T14:53:31.549Z,98465.26
2023-01-15T14:56:36.933Z,98468.40
2023-01-15T15:00:03.662Z,98473.34
2023-01-15T15:02:39.608Z,98465.16
2023-01-15T15:05:18.395Z,98465.46
2023-01-15T15:07:53.792Z,98474.67
2023-01-15T15:10:31.999Z,98476.02
2023-01-15T15:13:28.421Z,98477.98
2023-01-15T15:16:00.915Z,98486.51
2023-01-15T15:18:40.044Z,98477.58
2023-01-15T15:21:23.015Z,98482.80
2023-01-15T15:24:06.459Z,98482.02
2023-01-15T15:26:37.559Z,98478.77
2023-01-15T15:29:14.981Z,98480.58
2023-01-15T15:31:47.101Z,98480.96
2023-01-15T15:34:26.479Z,98482.48
2023-01-15T15:36:58.965Z,98482.13
2023-01-15T15:39:51.418Z,98473.56
2023-01-15T15:42:48.275Z,98470.20
2023-01-15T15:45:47.986Z,98475.57
2023-01-15T15:48:41.901Z,98479.23
2023-01-15T15:51:32.543Z,98473.30
2023-01-15T15:54:12.420Z,98469.21
2023-01-15T15:56:48.716Z,98468.43
2023-01-15T15:59:29.047Z,98465.95
2023-01-15T16:02:08.611Z,98462.02
2023-01-15T16:04:38.622Z,98462.80
2023-01-15T16:07:21.339Z,98456.79
2023-01-15T16:09:54.684Z,98454.88
2023-01-15T16:12:25.697Z,98458.80
2023-01-15T16:14:56.928Z,98459.05
2023-01-15T16:17:30.073Z,98457.17
2023-01-15T16:20:00.424Z,98447.14
2023-01-15T16:22:29.500Z,98442.02
2023-01-15T16:24:59.490Z,98447.30
2023-01-15T16:27:36.311Z,98441.30
2023-01-15T16:30:06.877Z,98442.29
2023-01-15T16:32:37.386Z,98440.95
2023-01-15T16:35:19.812Z,98442.98
2023-01-15T16:37:55.019Z,98437.08
2023-01-15T16:40:34.178Z,98437.23
2023-01-15T16:43:06.917Z,98438.48
2023-01-15T16:45:38.785Z,98441.85
2023-01-15T16:48:30.458Z,98439.95
2023-01-15T16:51:00.432Z,98438.17
2023-01-15T16:53:41.185Z,98433.86
2023-01-15T16:56:48.804Z,98423.42
2023-01-15T16:59:42.308Z,98419.67
2023-01-15T17:02:15.636Z,98422.16
2023-01-15T17:04:46.737Z,98419.11
2023-01-15T17:07:26.364Z,98421.02
2023-01-15T17:10:01.069Z,98418.43
2023-01-15T17:12:40.837Z,98424.27
2023-01-15T17:15:20.757Z,98421.27
2023-01-15T17:17:53.555Z,98421.75
2023-01-15T17:20:28.300Z,98417.69
2023-01-15T17:22:58.654Z,98423.28
2023-01-15T17:25:34.498Z,98419.39
2023-01-15T17:28:05.433Z,98421.17
2023-01-15T17:30:36.371Z,98417.34
2023-01-15T17:33:09.928Z,98414.24
2023-01-15T17:35:48.999Z,98406.98
2023-01-15T17:38:19.366Z,98409.44
2023-01-15T17:40:53.761Z,98401.54
2023-01-15T17:43:23.857Z,98394.21
2023-01-15T17:45:55.518Z,98389.75
2023-01-15T17:48:25.398Z,98386.95
2023-01-15T17:50:56.497Z,98383.45
2023-01-15T17:53:25.884Z,98375.93
2023-01-15T17:56:14.727Z,98370.10
2023-01-15T17:59:03.588Z,98372.42
2023-01-15T18:02:06.977Z,98366.31
2023-01-15T18:05:03.091Z,98367.60
2023-01-15T18:07:39.825Z,98357.19
2023-01-15T18:10:20.419Z,98349.98
2023-01-15T18:12:53.403Z,98350.90
2023-01-15T18:15:23.597Z,98338.02
2023-01-15T18:17:53.760Z,98330.98
2023-01-15T18:20:23.435Z,98334.10
2023-01-15T18:22:52.699Z,98339.70
2023-01-15T18:25:21.604Z,98328.25
2023-01-15T18:27:51.753Z,98320.58
2023-01-15T18:30:21.375Z,98320.10
2023-01-15T18:32:50.386Z,98322.33
2023-01-15T18:35:19.926Z,98333.55
2023-01-15T18:37:49.070Z,98346.79
2023-01-15T18:40:18.115Z,98345.65
2023-01-15T18:43:05.914Z,98335.77
2023-01-15T18:45:53.595Z,98338.23
2023-01-15T18:48:22.927Z,98327.31
2023-01-15T18:50:53.391Z,98333.42
2023-01-15T18:53:23.699Z,98329.91
2023-01-15T18:55:52.944Z,98328.66
2023-01-15T18:58:21.885Z,98326.30
2023-01-15T19:00:51.790Z,98329.45
2023-01-15T19:03:21.354Z,98329.08
2023-01-15T19:05:51.450Z,98328.60
2023-01-15T19:08:21.416Z,98319.13
2023-01-15T19:10:51.523Z,98320.55
2023-01-15T19:13:20.684Z,98315.36
2023-01-15T19:16:22.379Z,98308.80
2023-01-15T19:18:55.151Z,98303.36
2023-01-15T19:21:25.437Z,98308.29
2023-01-15T19:23:55.489Z,98300.14
2023-01-15T19:26:24.694Z,98300.23
2023-01-15T19:28:53.922Z,98299.92
2023-01-15T19:31:39.816Z,98301.87
2023-01-15T19:34:33.221Z,98295.67
2023-01-15T19:37:01.949Z,98294.76
2023-01-15T19:39:32.396Z,98293.94
2023-01-15T19:42:20.601Z,98294.60
2023-01-15T19:45:09.543Z,98287.83
2023-01-15T19:48:00.306Z,98282.33
2023-01-15T19:50:35.881Z,98282.14
2023-01-15T19:53:07.724Z,98273.73
2023-01-15T19:55:39.599Z,98273.81
2023-01-15T19:58:12.105Z,98271.55
2023-01-15T20:00:44.814Z,98267.61
2023-01-15T20:03:15.224Z,98264.09
2023-01-15T20:05:47.869Z,98257.83
2023-01-15T20:08:18.235Z,98255.67
2023-01-15T20:10:51.423Z,98252.42
2023-01-15T20:13:41.648Z,98243.66
2023-01-15T20:16:18.722Z,98240.13
2023-01-15T20:18:52.565Z,98234.55
2023-01-15T20:21:23.828Z,98235.94
2023-01-15T20:23:53.564Z,98229.23
2023-01-15T20:26:25.368Z,98229.45
2023-01-15T20:28:54.525Z,98222.98
2023-01-15T20:31:24.062Z,98225.25
2023-01-15T20:33:55.266Z,98219.61
2023-01-15T20:36:24.674Z,98217.27
2023-01-15T20:38:53.863Z,98219.21
2023-01-15T20:41:42.131Z,98223.10
2023-01-15T20:44:31.130Z,98231.08
2023-01-15T20:47:21.687Z,98226.40
2023-01-15T20:49:52.061Z,98218.82
2023-01-15T20:52:22.112Z,98221.39
2023-01-15T20:54:52.028Z,98216.98
2023-01-15T20:57:21.212Z,98205.35
2023-01-15T20:59:50.698Z,98213.14
2023-01-15T21:02:20.026Z,98206.09
2023-01-15T21:04:49.766Z,98202.30
2023-01-15T21:07:19.758Z,98199.63
2023-01-15T21:09:49.672Z,98188.65
2023-01-15T21:12:19.196Z,98191.15
2023-01-15T21:14:48.470Z,98189.09
2023-01-15T21:17:18.911Z,98185.53
2023-01-15T21:19:48.881Z,98194.56
2023-01-15T21:22:18.798Z,98180.63
2023-01-15T21:24:51.326Z,98181.83
2023-01-15T21:27:20.538Z,98186.92
2023-01-15T21:29:49.782Z,98181.17
2023-01-15T21:32:19.147Z,98173.68
2023-01-15T21:34:47.996Z,98178.44
2023-01-15T21:37:17.947Z,98175.86
2023-01-15T21:39:46.575Z,98168.68
2023-01-15T21:42:40.289Z,98166.13
2023-01-15T21:45:11.587Z,98166.54
2023-01-15T21:47:42.186Z,98157.68
2023-01-15T21:50:11.024Z,98153.08
2023-01-15T21:52:40.122Z,98149.86
2023-01-15T21:55:09.464Z,98143.38
2023-01-15T21:57:38.726Z,98138.68
2023-01-15T22:00:09.489Z,98149.17
2023-01-15T22:02:39.614Z,98132.55
2023-01-15T22:05:08.895Z,98136.13
2023-01-15T22:07:38.323Z,98125.98
2023-01-15T22:10:08.214Z,98125.29
2023-01-15T22:12:42.688Z,98126.55
2023-01-15T22:15:12.802Z,98136.30
2023-01-15T22:17:42.893Z,98129.80
2023-01-15T22:20:13.393Z,98121.89
2023-01-15T22:22:42.811Z,98127.42
2023-01-15T22:25:15.988Z,98120.90
2023-01-15T22:27:45.134Z,98104.80
2023-01-15T22:30:16.448Z,98101.77
2023-01-15T22:32:46.030Z,98101.89
2023-01-15T22:35:15.989Z,98095.05
2023-01-15T22:37:45.080Z,98081.88
2023-01-15T22:40:14.290Z,98091.94
2023-01-15T22:42:44.451Z,98093.48
2023-01-15T22:45:13.559Z,98079.60
2023-01-15T22:47:42.720Z,98081.39
2023-01-15T22:50:12.991Z,98083.84
2023-01-15T22:52:42.627Z,98066.44
2023-01-15T22:55:12.996Z,98062.59
2023-01-15T22:57:42.303Z,98051.50
2023-01-15T23:00:11.755Z,98050.20
2023-01-15T23:02:56.489Z,98045.44
2023-01-15T23:05:25.845Z,98033.86
2023-01-15T23:07:55.973Z,98027.59
2023-01-15T23:10:25.068Z,98036.22
2023-01-15T23:12:54.634Z,98025.83
2023-01-15T23:15:23.497Z,98015.20
2023-01-15T23:17:52.584Z,98013.98
2023-01-15T23:20:21.521Z,98014.96
2023-01-15T23:22:50.917Z,98004.82
2023-01-15T23:25:19.800Z,98001.59
2023-01-15T23:27:49.243Z,97996.86
2023-01-15T23:30:18.703Z,97991.77
2023-01-15T23:32:47.521Z,97988.77
2023-01-15T23:35:16.465Z,97972.58
2023-01-15T23:37:45.445Z,97974.75
2023-01-15T23:40:14.244Z,97972.04
2023-01-15T23:43:02.175Z,97958.98
2023-01-15T23:45:50.009Z,97966.42
2023-01-15T23:48:20.466Z,97978.77
2023-01-15T23:50:50.639Z,97979.45
2023-01-15T23:53:19.233Z,97978.23
2023-01-15T23:55:48.021Z,97964.52
2023-01-15T23:58:16.905Z,97958.70
